Terminal Aerodrome Forecast
Issued by NWS Twin Cities, MN

Home | Current Version | Previous Version | Text Only | Print | Product List | Glossary On
Versions: 1 2 3 4 5 6 7 8 9 10 11 12 13 14 15 16 17
000
FTUS43 KMPX 010532
TAFEAU
TAF
KEAU 010532Z 0106/0206 19008KT 6SM -SN BKN035
      TEMPO 0106/0107 BKN030
     FM011000 19007KT P6SM FEW030 BKN050
     FM011500 25009KT P6SM SCT100
      TEMPO 0118/0122 26010G16KT=

USA.gov is the U.S. government's official web portal to all federal, state and local government web resources and services.